sensor_id;sensor_type;location;lat;lon;timestamp;temperature;humidity
3994;DHT22;2011;48.238;13.948;2023-04-06T00:00:35;1.80;67.80
3994;DHT22;2011;48.238;13.948;2023-04-06T00:03:02;1.70;67.70
3994;DHT22;2011;48.238;13.948;2023-04-06T00:05:29;1.70;69.00
3994;DHT22;2011;48.238;13.948;2023-04-06T00:07:57;1.60;68.10
3994;DHT22;2011;48.238;13.948;2023-04-06T00:10:25;1.50;68.40
3994;DHT22;2011;48.238;13.948;2023-04-06T00:12:53;1.50;68.20
3994;DHT22;2011;48.238;13.948;2023-04-06T00:15:20;1.50;68.00
3994;DHT22;2011;48.238;13.948;2023-04-06T00:17:47;1.50;68.40
3994;DHT22;2011;48.238;13.948;2023-04-06T00:20:14;1.40;69.00
3994;DHT22;2011;48.238;13.948;2023-04-06T00:22:41;1.40;69.30
3994;DHT22;2011;48.238;13.948;2023-04-06T00:25:09;1.30;69.40
3994;DHT22;2011;48.238;13.948;2023-04-06T00:27:38;1.20;70.50
3994;DHT22;2011;48.238;13.948;2023-04-06T00:30:06;1.20;70.20
3994;DHT22;2011;48.238;13.948;2023-04-06T00:32:34;1.20;69.60
3994;DHT22;2011;48.238;13.948;2023-04-06T00:35:02;1.10;70.20
3994;DHT22;2011;48.238;13.948;2023-04-06T00:37:29;1.10;70.00
3994;DHT22;2011;48.238;13.948;2023-04-06T00:39:56;1.10;70.00
3994;DHT22;2011;48.238;13.948;2023-04-06T00:42:24;1.10;70.00
3994;DHT22;2011;48.238;13.948;2023-04-06T00:44:54;1.10;70.00
3994;DHT22;2011;48.238;13.948;2023-04-06T00:47:21;1.00;69.90
3994;DHT22;2011;48.238;13.948;2023-04-06T00:49:48;1.00;70.00
3994;DHT22;2011;48.238;13.948;2023-04-06T00:52:15;1.00;70.50
3994;DHT22;2011;48.238;13.948;2023-04-06T00:54:42;1.00;71.10
3994;DHT22;2011;48.238;13.948;2023-04-06T00:57:10;1.00;71.20
3994;DHT22;2011;48.238;13.948;2023-04-06T00:59:37;1.00;71.10
3994;DHT22;2011;48.238;13.948;2023-04-06T01:02:07;0.90;70.90
3994;DHT22;2011;48.238;13.948;2023-04-06T01:04:34;0.90;70.50
3994;DHT22;2011;48.238;13.948;2023-04-06T01:07:01;0.90;70.70
3994;DHT22;2011;48.238;13.948;2023-04-06T01:09:29;0.90;70.90
3994;DHT22;2011;48.238;13.948;2023-04-06T01:11:56;0.90;71.10
3994;DHT22;2011;48.238;13.948;2023-04-06T01:14:23;0.80;71.40
3994;DHT22;2011;48.238;13.948;2023-04-06T01:16:51;0.70;71.60
3994;DHT22;2011;48.238;13.948;2023-04-06T01:19:19;0.70;72.10
3994;DHT22;2011;48.238;13.948;2023-04-06T01:21:47;0.70;72.90
3994;DHT22;2011;48.238;13.948;2023-04-06T01:24:17;0.60;73.90
3994;DHT22;2011;48.238;13.948;2023-04-06T01:26:45;0.50;74.00
3994;DHT22;2011;48.238;13.948;2023-04-06T01:29:12;0.50;74.20
3994;DHT22;2011;48.238;13.948;2023-04-06T01:31:39;0.50;74.20
3994;DHT22;2011;48.238;13.948;2023-04-06T01:34:06;0.50;74.60
3994;DHT22;2011;48.238;13.948;2023-04-06T01:36:33;0.40;74.20
3994;DHT22;2011;48.238;13.948;2023-04-06T01:39:01;0.40;74.00
3994;DHT22;2011;48.238;13.948;2023-04-06T01:41:29;0.40;74.30
3994;DHT22;2011;48.238;13.948;2023-04-06T01:43:56;0.30;75.00
3994;DHT22;2011;48.238;13.948;2023-04-06T01:46:23;0.30;75.00
3994;DHT22;2011;48.238;13.948;2023-04-06T01:48:50;0.30;74.90
3994;DHT22;2011;48.238;13.948;2023-04-06T01:51:17;0.30;74.70
3994;DHT22;2011;48.238;13.948;2023-04-06T01:53:44;0.30;75.20
3994;DHT22;2011;48.238;13.948;2023-04-06T01:56:11;0.20;75.90
3994;DHT22;2011;48.238;13.948;2023-04-06T01:58:40;0.20;76.00
3994;DHT22;2011;48.238;13.948;2023-04-06T02:01:07;0.20;76.60
3994;DHT22;2011;48.238;13.948;2023-04-06T02:03:34;0.10;76.10
3994;DHT22;2011;48.238;13.948;2023-04-06T02:06:00;0.10;76.00
3994;DHT22;2011;48.238;13.948;2023-04-06T02:08:27;0.10;76.60
3994;DHT22;2011;48.238;13.948;2023-04-06T02:10:54;0.00;77.80
3994;DHT22;2011;48.238;13.948;2023-04-06T02:13:21;0.00;78.00
3994;DHT22;2011;48.238;13.948;2023-04-06T02:15:50;0.00;78.40
3994;DHT22;2011;48.238;13.948;2023-04-06T02:18:17;-0.10;78.30
3994;DHT22;2011;48.238;13.948;2023-04-06T02:20:45;-0.10;79.10
3994;DHT22;2011;48.238;13.948;2023-04-06T02:23:12;-0.10;78.40
3994;DHT22;2011;48.238;13.948;2023-04-06T02:25:39;-0.20;79.40
3994;DHT22;2011;48.238;13.948;2023-04-06T02:28:06;-0.20;79.80
3994;DHT22;2011;48.238;13.948;2023-04-06T02:30:33;-0.20;79.70
3994;DHT22;2011;48.238;13.948;2023-04-06T02:33:02;-0.30;79.00
3994;DHT22;2011;48.238;13.948;2023-04-06T02:35:30;-0.30;78.70
3994;DHT22;2011;48.238;13.948;2023-04-06T02:37:57;-0.30;78.90
3994;DHT22;2011;48.238;13.948;2023-04-06T02:40:24;-0.30;78.70
3994;DHT22;2011;48.238;13.948;2023-04-06T02:42:51;-0.30;79.00
3994;DHT22;2011;48.238;13.948;2023-04-06T02:45:18;-0.30;78.90
3994;DHT22;2011;48.238;13.948;2023-04-06T02:47:46;-0.30;79.10
3994;DHT22;2011;48.238;13.948;2023-04-06T02:50:14;-0.30;79.50
3994;DHT22;2011;48.238;13.948;2023-04-06T02:52:41;-0.40;79.90
3994;DHT22;2011;48.238;13.948;2023-04-06T02:55:09;-0.40;80.20
3994;DHT22;2011;48.238;13.948;2023-04-06T02:57:36;-0.40;80.40
3994;DHT22;2011;48.238;13.948;2023-04-06T03:00:04;-0.40;80.40
3994;DHT22;2011;48.238;13.948;2023-04-06T03:02:31;-0.40;80.50
3994;DHT22;2011;48.238;13.948;2023-04-06T03:04:58;-0.40;80.30
3994;DHT22;2011;48.238;13.948;2023-04-06T03:07:26;-0.40;79.90
3994;DHT22;2011;48.238;13.948;2023-04-06T03:09:53;-0.40;80.50
3994;DHT22;2011;48.238;13.948;2023-04-06T03:12:20;-0.40;81.80
3994;DHT22;2011;48.238;13.948;2023-04-06T03:14:47;-0.40;82.20
3994;DHT22;2011;48.238;13.948;2023-04-06T03:17:14;-0.40;82.20
3994;DHT22;2011;48.238;13.948;2023-04-06T03:19:41;-0.40;82.50
3994;DHT22;2011;48.238;13.948;2023-04-06T03:22:08;-0.40;82.40
3994;DHT22;2011;48.238;13.948;2023-04-06T03:24:37;-0.50;82.30
3994;DHT22;2011;48.238;13.948;2023-04-06T03:27:04;-0.50;82.40
3994;DHT22;2011;48.238;13.948;2023-04-06T03:29:32;-0.50;82.30
3994;DHT22;2011;48.238;13.948;2023-04-06T03:31:59;-0.50;83.40
3994;DHT22;2011;48.238;13.948;2023-04-06T03:34:26;-0.60;84.60
3994;DHT22;2011;48.238;13.948;2023-04-06T03:36:53;-0.70;84.70
3994;DHT22;2011;48.238;13.948;2023-04-06T03:39:20;-0.70;84.40
3994;DHT22;2011;48.238;13.948;2023-04-06T03:41:48;-0.80;85.40
3994;DHT22;2011;48.238;13.948;2023-04-06T03:44:15;-0.80;85.30
3994;DHT22;2011;48.238;13.948;2023-04-06T03:46:42;-0.80;84.70
3994;DHT22;2011;48.238;13.948;2023-04-06T03:49:09;-0.70;84.20
3994;DHT22;2011;48.238;13.948;2023-04-06T03:51:36;-0.70;85.00
3994;DHT22;2011;48.238;13.948;2023-04-06T03:54:03;-0.70;85.00
3994;DHT22;2011;48.238;13.948;2023-04-06T03:56:31;-0.70;85.10
3994;DHT22;2011;48.238;13.948;2023-04-06T03:58:59;-0.70;85.00
3994;DHT22;2011;48.238;13.948;2023-04-06T04:01:27;-0.70;85.10
3994;DHT22;2011;48.238;13.948;2023-04-06T04:03:54;-0.70;84.50
3994;DHT22;2011;48.238;13.948;2023-04-06T04:06:21;-0.70;84.30
3994;DHT22;2011;48.238;13.948;2023-04-06T04:08:48;-0.80;84.60
3994;DHT22;2011;48.238;13.948;2023-04-06T04:11:15;-0.80;84.90
3994;DHT22;2011;48.238;13.948;2023-04-06T04:13:42;-0.80;84.60
3994;DHT22;2011;48.238;13.948;2023-04-06T04:16:11;-0.80;83.90
3994;DHT22;2011;48.238;13.948;2023-04-06T04:18:38;-0.80;83.40
3994;DHT22;2011;48.238;13.948;2023-04-06T04:21:05;-0.80;83.10
3994;DHT22;2011;48.238;13.948;2023-04-06T04:23:32;-0.80;84.00
3994;DHT22;2011;48.238;13.948;2023-04-06T04:25:59;-0.80;84.60
3994;DHT22;2011;48.238;13.948;2023-04-06T04:28:26;-0.90;84.50
3994;DHT22;2011;48.238;13.948;2023-04-06T04:30:53;-0.90;84.10
3994;DHT22;2011;48.238;13.948;2023-04-06T04:33:22;-0.90;84.20
3994;DHT22;2011;48.238;13.948;2023-04-06T04:35:49;-0.90;84.00
3994;DHT22;2011;48.238;13.948;2023-04-06T04:38:16;-0.90;84.20
3994;DHT22;2011;48.238;13.948;2023-04-06T04:40:43;-0.90;85.20
3994;DHT22;2011;48.238;13.948;2023-04-06T04:43:10;-0.90;85.00
3994;DHT22;2011;48.238;13.948;2023-04-06T04:45:37;-0.90;85.20
3994;DHT22;2011;48.238;13.948;2023-04-06T04:48:05;-0.90;85.50
3994;DHT22;2011;48.238;13.948;2023-04-06T04:50:34;-0.90;86.30
3994;DHT22;2011;48.238;13.948;2023-04-06T04:53:01;-1.00;86.10
3994;DHT22;2011;48.238;13.948;2023-04-06T04:55:30;-1.00;86.60
3994;DHT22;2011;48.238;13.948;2023-04-06T04:57:57;-1.00;87.70
3994;DHT22;2011;48.238;13.948;2023-04-06T05:00:25;-1.00;88.00
3994;DHT22;2011;48.238;13.948;2023-04-06T05:02:52;-1.00;88.90
3994;DHT22;2011;48.238;13.948;2023-04-06T05:05:19;-1.00;89.10
3994;DHT22;2011;48.238;13.948;2023-04-06T05:07:48;-1.00;89.40
3994;DHT22;2011;48.238;13.948;2023-04-06T05:10:15;-0.90;88.80
3994;DHT22;2011;48.238;13.948;2023-04-06T05:12:42;-1.00;89.30
3994;DHT22;2011;48.238;13.948;2023-04-06T05:15:09;-0.90;89.60
3994;DHT22;2011;48.238;13.948;2023-04-06T05:17:37;-0.90;90.10
3994;DHT22;2011;48.238;13.948;2023-04-06T05:20:05;-0.90;90.10
3994;DHT22;2011;48.238;13.948;2023-04-06T05:22:32;-0.80;90.50
3994;DHT22;2011;48.238;13.948;2023-04-06T05:25:01;-0.80;90.60
3994;DHT22;2011;48.238;13.948;2023-04-06T05:27:28;-0.80;90.40
3994;DHT22;2011;48.238;13.948;2023-04-06T05:29:55;-0.80;90.70
3994;DHT22;2011;48.238;13.948;2023-04-06T05:32:22;-0.80;90.50
3994;DHT22;2011;48.238;13.948;2023-04-06T05:34:50;-0.80;90.40
3994;DHT22;2011;48.238;13.948;2023-04-06T05:37:17;-0.80;90.30
3994;DHT22;2011;48.238;13.948;2023-04-06T05:39:44;-0.70;90.40
3994;DHT22;2011;48.238;13.948;2023-04-06T05:42:12;-0.70;90.70
3994;DHT22;2011;48.238;13.948;2023-04-06T05:44:40;-0.70;90.30
3994;DHT22;2011;48.238;13.948;2023-04-06T05:47:07;-0.70;90.80
3994;DHT22;2011;48.238;13.948;2023-04-06T05:49:35;-0.60;91.40
3994;DHT22;2011;48.238;13.948;2023-04-06T05:52:02;-0.60;91.60
3994;DHT22;2011;48.238;13.948;2023-04-06T05:54:29;-0.50;91.30
3994;DHT22;2011;48.238;13.948;2023-04-06T05:56:56;-0.40;91.50
3994;DHT22;2011;48.238;13.948;2023-04-06T05:59:25;-0.30;91.20
3994;DHT22;2011;48.238;13.948;2023-04-06T06:01:52;-0.20;91.20
3994;DHT22;2011;48.238;13.948;2023-04-06T06:04:19;-0.10;91.00
3994;DHT22;2011;48.238;13.948;2023-04-06T06:06:46;0.00;90.70
3994;DHT22;2011;48.238;13.948;2023-04-06T06:09:13;0.10;90.60
3994;DHT22;2011;48.238;13.948;2023-04-06T06:11:40;0.30;90.80
3994;DHT22;2011;48.238;13.948;2023-04-06T06:14:07;0.40;90.60
3994;DHT22;2011;48.238;13.948;2023-04-06T06:16:36;0.50;90.70
3994;DHT22;2011;48.238;13.948;2023-04-06T06:19:03;0.60;90.30
3994;DHT22;2011;48.238;13.948;2023-04-06T06:21:30;0.70;90.20
3994;DHT22;2011;48.238;13.948;2023-04-06T06:23:57;0.80;90.20
3994;DHT22;2011;48.238;13.948;2023-04-06T06:26:24;0.80;90.50
3994;DHT22;2011;48.238;13.948;2023-04-06T06:28:51;0.80;90.90
3994;DHT22;2011;48.238;13.948;2023-04-06T06:31:18;0.90;91.00
3994;DHT22;2011;48.238;13.948;2023-04-06T06:33:49;0.90;91.00
3994;DHT22;2011;48.238;13.948;2023-04-06T06:36:17;1.00;91.40
3994;DHT22;2011;48.238;13.948;2023-04-06T06:38:44;0.90;91.70
3994;DHT22;2011;48.238;13.948;2023-04-06T06:41:11;0.90;92.20
3994;DHT22;2011;48.238;13.948;2023-04-06T06:43:38;1.00;92.40
3994;DHT22;2011;48.238;13.948;2023-04-06T06:46:06;1.00;92.80
3994;DHT22;2011;48.238;13.948;2023-04-06T06:48:33;1.10;92.90
3994;DHT22;2011;48.238;13.948;2023-04-06T06:51:01;1.10;92.90
3994;DHT22;2011;48.238;13.948;2023-04-06T06:53:29;1.20;93.00
3994;DHT22;2011;48.238;13.948;2023-04-06T06:55:56;1.30;93.10
3994;DHT22;2011;48.238;13.948;2023-04-06T06:58:23;1.30;93.20
3994;DHT22;2011;48.238;13.948;2023-04-06T07:00:50;1.40;93.60
3994;DHT22;2011;48.238;13.948;2023-04-06T07:03:17;1.60;93.70
3994;DHT22;2011;48.238;13.948;2023-04-06T07:05:45;1.80;93.40
3994;DHT22;2011;48.238;13.948;2023-04-06T07:08:20;1.90;92.60
3994;DHT22;2011;48.238;13.948;2023-04-06T07:10:47;2.10;93.10
3994;DHT22;2011;48.238;13.948;2023-04-06T07:13:14;2.20;92.70
3994;DHT22;2011;48.238;13.948;2023-04-06T07:15:44;2.40;92.60
3994;DHT22;2011;48.238;13.948;2023-04-06T07:18:11;2.60;92.90
3994;DHT22;2011;48.238;13.948;2023-04-06T07:20:39;2.80;92.00
3994;DHT22;2011;48.238;13.948;2023-04-06T07:23:06;2.90;92.00
3994;DHT22;2011;48.238;13.948;2023-04-06T07:25:35;3.00;92.00
3994;DHT22;2011;48.238;13.948;2023-04-06T07:28:02;3.20;90.90
3994;DHT22;2011;48.238;13.948;2023-04-06T07:30:29;3.30;90.90
3994;DHT22;2011;48.238;13.948;2023-04-06T07:32:56;3.40;89.40
3994;DHT22;2011;48.238;13.948;2023-04-06T07:35:25;3.60;89.00
3994;DHT22;2011;48.238;13.948;2023-04-06T07:37:53;3.70;89.50
3994;DHT22;2011;48.238;13.948;2023-04-06T07:40:20;3.90;89.30
3994;DHT22;2011;48.238;13.948;2023-04-06T07:42:48;4.00;89.10
3994;DHT22;2011;48.238;13.948;2023-04-06T07:45:15;4.20;88.80
3994;DHT22;2011;48.238;13.948;2023-04-06T07:47:43;4.30;87.80
3994;DHT22;2011;48.238;13.948;2023-04-06T07:50:10;4.40;88.70
3994;DHT22;2011;48.238;13.948;2023-04-06T07:52:38;4.50;87.60
3994;DHT22;2011;48.238;13.948;2023-04-06T07:55:05;4.60;87.20
3994;DHT22;2011;48.238;13.948;2023-04-06T07:57:32;4.60;87.10
3994;DHT22;2011;48.238;13.948;2023-04-06T08:00:00;4.70;86.10
3994;DHT22;2011;48.238;13.948;2023-04-06T08:02:29;4.80;86.00
3994;DHT22;2011;48.238;13.948;2023-04-06T08:04:56;4.90;86.50
3994;DHT22;2011;48.238;13.948;2023-04-06T08:07:23;5.00;84.90
3994;DHT22;2011;48.238;13.948;2023-04-06T08:09:51;5.10;84.00
3994;DHT22;2011;48.238;13.948;2023-04-06T08:12:18;5.20;83.00
3994;DHT22;2011;48.238;13.948;2023-04-06T08:14:45;5.30;84.00
3994;DHT22;2011;48.238;13.948;2023-04-06T08:17:13;5.40;84.70
3994;DHT22;2011;48.238;13.948;2023-04-06T08:19:42;5.40;83.90
3994;DHT22;2011;48.238;13.948;2023-04-06T08:22:10;5.50;82.90
3994;DHT22;2011;48.238;13.948;2023-04-06T08:24:37;5.70;82.70
3994;DHT22;2011;48.238;13.948;2023-04-06T08:27:04;5.70;82.30
3994;DHT22;2011;48.238;13.948;2023-04-06T08:29:31;5.80;80.80
3994;DHT22;2011;48.238;13.948;2023-04-06T08:31:58;6.00;80.50
3994;DHT22;2011;48.238;13.948;2023-04-06T08:34:26;6.10;80.30
3994;DHT22;2011;48.238;13.948;2023-04-06T08:36:53;6.10;79.50
3994;DHT22;2011;48.238;13.948;2023-04-06T08:39:20;6.20;80.00
3994;DHT22;2011;48.238;13.948;2023-04-06T08:41:51;6.30;79.90
3994;DHT22;2011;48.238;13.948;2023-04-06T08:44:19;6.40;77.70
3994;DHT22;2011;48.238;13.948;2023-04-06T08:46:46;6.40;79.00
3994;DHT22;2011;48.238;13.948;2023-04-06T08:49:14;6.50;78.20
3994;DHT22;2011;48.238;13.948;2023-04-06T08:51:44;6.60;77.70
3994;DHT22;2011;48.238;13.948;2023-04-06T08:54:11;6.70;75.10
3994;DHT22;2011;48.238;13.948;2023-04-06T08:56:39;6.70;75.20
3994;DHT22;2011;48.238;13.948;2023-04-06T08:59:06;6.70;75.60
3994;DHT22;2011;48.238;13.948;2023-04-06T09:01:38;6.90;77.30
3994;DHT22;2011;48.238;13.948;2023-04-06T09:04:07;6.90;76.40
3994;DHT22;2011;48.238;13.948;2023-04-06T09:06:36;7.00;76.50
3994;DHT22;2011;48.238;13.948;2023-04-06T09:09:05;7.00;73.40
3994;DHT22;2011;48.238;13.948;2023-04-06T09:11:43;7.10;75.10
3994;DHT22;2011;48.238;13.948;2023-04-06T09:14:10;7.30;76.10
3994;DHT22;2011;48.238;13.948;2023-04-06T09:16:39;7.30;75.00
3994;DHT22;2011;48.238;13.948;2023-04-06T09:19:07;7.40;73.10
3994;DHT22;2011;48.238;13.948;2023-04-06T09:21:34;7.40;73.50
3994;DHT22;2011;48.238;13.948;2023-04-06T09:24:05;7.50;72.90
3994;DHT22;2011;48.238;13.948;2023-04-06T09:26:43;7.60;74.00
3994;DHT22;2011;48.238;13.948;2023-04-06T09:29:10;7.60;74.40
3994;DHT22;2011;48.238;13.948;2023-04-06T09:31:48;7.80;73.00
3994;DHT22;2011;48.238;13.948;2023-04-06T09:34:21;7.90;74.10
3994;DHT22;2011;48.238;13.948;2023-04-06T09:36:49;7.90;71.60
3994;DHT22;2011;48.238;13.948;2023-04-06T09:39:21;8.00;73.60
3994;DHT22;2011;48.238;13.948;2023-04-06T09:41:50;8.10;72.30
3994;DHT22;2011;48.238;13.948;2023-04-06T09:44:18;8.20;71.30
3994;DHT22;2011;48.238;13.948;2023-04-06T09:46:46;8.30;71.30
3994;DHT22;2011;48.238;13.948;2023-04-06T09:49:13;8.40;70.80
3994;DHT22;2011;48.238;13.948;2023-04-06T09:51:43;8.50;71.40
3994;DHT22;2011;48.238;13.948;2023-04-06T09:54:15;8.60;71.20
3994;DHT22;2011;48.238;13.948;2023-04-06T09:56:49;8.70;69.70
3994;DHT22;2011;48.238;13.948;2023-04-06T09:59:21;8.80;68.90
3994;DHT22;2011;48.238;13.948;2023-04-06T10:01:52;8.80;69.30
3994;DHT22;2011;48.238;13.948;2023-04-06T10:04:27;8.90;69.30
3994;DHT22;2011;48.238;13.948;2023-04-06T10:06:59;9.00;66.80
3994;DHT22;2011;48.238;13.948;2023-04-06T10:09:28;9.00;65.00
3994;DHT22;2011;48.238;13.948;2023-04-06T10:12:03;9.00;62.20
3994;DHT22;2011;48.238;13.948;2023-04-06T10:14:31;8.90;61.10
3994;DHT22;2011;48.238;13.948;2023-04-06T10:17:00;8.70;60.40
3994;DHT22;2011;48.238;13.948;2023-04-06T10:19:34;8.50;60.30
3994;DHT22;2011;48.238;13.948;2023-04-06T10:22:02;8.40;60.90
3994;DHT22;2011;48.238;13.948;2023-04-06T10:24:31;8.60;62.80
3994;DHT22;2011;48.238;13.948;2023-04-06T10:27:00;8.80;63.30
3994;DHT22;2011;48.238;13.948;2023-04-06T10:29:42;8.90;61.60
3994;DHT22;2011;48.238;13.948;2023-04-06T10:32:09;8.70;58.60
3994;DHT22;2011;48.238;13.948;2023-04-06T10:34:36;8.20;58.60
3994;DHT22;2011;48.238;13.948;2023-04-06T10:37:11;8.10;58.80
3994;DHT22;2011;48.238;13.948;2023-04-06T10:39:46;8.10;57.50
3994;DHT22;2011;48.238;13.948;2023-04-06T10:42:14;8.20;58.60
3994;DHT22;2011;48.238;13.948;2023-04-06T10:44:45;8.50;60.30
3994;DHT22;2011;48.238;13.948;2023-04-06T10:47:16;8.50;57.70
3994;DHT22;2011;48.238;13.948;2023-04-06T10:49:44;8.70;60.10
3994;DHT22;2011;48.238;13.948;2023-04-06T10:52:11;8.40;56.60
3994;DHT22;2011;48.238;13.948;2023-04-06T10:54:42;8.20;56.90
3994;DHT22;2011;48.238;13.948;2023-04-06T10:57:10;8.30;57.70
3994;DHT22;2011;48.238;13.948;2023-04-06T10:59:37;8.60;57.90
3994;DHT22;2011;48.238;13.948;2023-04-06T11:02:19;8.70;57.40
3994;DHT22;2011;48.238;13.948;2023-04-06T11:04:54;8.70;56.20
3994;DHT22;2011;48.238;13.948;2023-04-06T11:07:25;8.90;56.50
3994;DHT22;2011;48.238;13.948;2023-04-06T11:09:54;9.00;56.20
3994;DHT22;2011;48.238;13.948;2023-04-06T11:12:23;9.20;57.00
3994;DHT22;2011;48.238;13.948;2023-04-06T11:14:55;9.40;56.90
3994;DHT22;2011;48.238;13.948;2023-04-06T11:17:28;9.60;56.60
3994;DHT22;2011;48.238;13.948;2023-04-06T11:19:55;9.50;57.10
3994;DHT22;2011;48.238;13.948;2023-04-06T11:22:22;9.30;56.90
3994;DHT22;2011;48.238;13.948;2023-04-06T11:24:50;9.20;57.40
3994;DHT22;2011;48.238;13.948;2023-04-06T11:27:18;9.30;57.60
3994;DHT22;2011;48.238;13.948;2023-04-06T11:29:46;9.50;57.60
3994;DHT22;2011;48.238;13.948;2023-04-06T11:32:20;9.60;56.30
3994;DHT22;2011;48.238;13.948;2023-04-06T11:34:49;9.60;56.90
3994;DHT22;2011;48.238;13.948;2023-04-06T11:37:16;9.70;55.90
3994;DHT22;2011;48.238;13.948;2023-04-06T11:39:47;9.80;56.70
3994;DHT22;2011;48.238;13.948;2023-04-06T11:42:26;10.00;54.90
3994;DHT22;2011;48.238;13.948;2023-04-06T11:44:55;10.10;55.80
3994;DHT22;2011;48.238;13.948;2023-04-06T11:47:30;10.10;54.50
3994;DHT22;2011;48.238;13.948;2023-04-06T11:50:05;10.30;57.20
3994;DHT22;2011;48.238;13.948;2023-04-06T11:52:33;10.50;55.70
3994;DHT22;2011;48.238;13.948;2023-04-06T11:55:10;10.20;53.80
3994;DHT22;2011;48.238;13.948;2023-04-06T11:57:38;10.30;55.40
3994;DHT22;2011;48.238;13.948;2023-04-06T12:00:06;10.30;53.50
3994;DHT22;2011;48.238;13.948;2023-04-06T12:02:33;10.60;54.30
3994;DHT22;2011;48.238;13.948;2023-04-06T12:05:04;10.60;54.10
3994;DHT22;2011;48.238;13.948;2023-04-06T12:07:32;10.60;54.60
3994;DHT22;2011;48.238;13.948;2023-04-06T12:10:00;10.50;53.60
3994;DHT22;2011;48.238;13.948;2023-04-06T12:12:28;10.50;53.10
3994;DHT22;2011;48.238;13.948;2023-04-06T12:14:55;10.50;53.00
3994;DHT22;2011;48.238;13.948;2023-04-06T12:17:22;10.30;52.40
3994;DHT22;2011;48.238;13.948;2023-04-06T12:19:49;10.20;53.20
3994;DHT22;2011;48.238;13.948;2023-04-06T12:22:18;10.20;52.50
3994;DHT22;2011;48.238;13.948;2023-04-06T12:24:45;10.30;53.10
3994;DHT22;2011;48.238;13.948;2023-04-06T12:27:12;10.30;53.10
3994;DHT22;2011;48.238;13.948;2023-04-06T12:29:39;10.40;52.50
3994;DHT22;2011;48.238;13.948;2023-04-06T12:32:06;10.70;53.10
3994;DHT22;2011;48.238;13.948;2023-04-06T12:34:34;10.70;52.60
3994;DHT22;2011;48.238;13.948;2023-04-06T12:37:01;10.70;51.50
3994;DHT22;2011;48.238;13.948;2023-04-06T12:39:29;10.60;50.40
3994;DHT22;2011;48.238;13.948;2023-04-06T12:41:56;10.60;51.70
3994;DHT22;2011;48.238;13.948;2023-04-06T12:44:23;10.70;51.20
3994;DHT22;2011;48.238;13.948;2023-04-06T12:46:50;10.80;52.00
3994;DHT22;2011;48.238;13.948;2023-04-06T12:49:18;11.00;52.30
3994;DHT22;2011;48.238;13.948;2023-04-06T12:51:45;11.10;51.10
3994;DHT22;2011;48.238;13.948;2023-04-06T12:54:13;11.00;50.80
3994;DHT22;2011;48.238;13.948;2023-04-06T12:56:41;11.00;50.10
3994;DHT22;2011;48.238;13.948;2023-04-06T12:59:08;10.90;49.20
3994;DHT22;2011;48.238;13.948;2023-04-06T13:01:35;10.80;48.30
3994;DHT22;2011;48.238;13.948;2023-04-06T13:04:02;10.90;48.60
3994;DHT22;2011;48.238;13.948;2023-04-06T13:06:29;11.00;48.90
3994;DHT22;2011;48.238;13.948;2023-04-06T13:08:56;11.10;48.40
3994;DHT22;2011;48.238;13.948;2023-04-06T13:11:25;11.20;49.40
3994;DHT22;2011;48.238;13.948;2023-04-06T13:13:53;11.10;48.20
3994;DHT22;2011;48.238;13.948;2023-04-06T13:16:20;11.00;46.40
3994;DHT22;2011;48.238;13.948;2023-04-06T13:18:47;11.00;46.40
3994;DHT22;2011;48.238;13.948;2023-04-06T13:21:16;11.00;47.40
3994;DHT22;2011;48.238;13.948;2023-04-06T13:23:43;11.20;49.00
3994;DHT22;2011;48.238;13.948;2023-04-06T13:26:10;11.40;48.90
3994;DHT22;2011;48.238;13.948;2023-04-06T13:28:38;11.40;48.70
3994;DHT22;2011;48.238;13.948;2023-04-06T13:31:07;11.60;49.00
3994;DHT22;2011;48.238;13.948;2023-04-06T13:33:35;11.80;48.10
3994;DHT22;2011;48.238;13.948;2023-04-06T13:36:03;11.80;48.00
3994;DHT22;2011;48.238;13.948;2023-04-06T13:38:30;11.60;46.90
3994;DHT22;2011;48.238;13.948;2023-04-06T13:40:59;11.70;47.20
3994;DHT22;2011;48.238;13.948;2023-04-06T13:43:26;11.80;47.60
3994;DHT22;2011;48.238;13.948;2023-04-06T13:45:54;11.80;46.50
3994;DHT22;2011;48.238;13.948;2023-04-06T13:48:23;11.70;47.30
3994;DHT22;2011;48.238;13.948;2023-04-06T13:50:51;11.60;47.90
3994;DHT22;2011;48.238;13.948;2023-04-06T13:53:18;11.60;47.60
3994;DHT22;2011;48.238;13.948;2023-04-06T13:55:52;11.80;48.50
3994;DHT22;2011;48.238;13.948;2023-04-06T13:58:19;11.90;47.60
3994;DHT22;2011;48.238;13.948;2023-04-06T14:00:46;12.00;48.10
3994;DHT22;2011;48.238;13.948;2023-04-06T14:03:13;12.00;47.30
3994;DHT22;2011;48.238;13.948;2023-04-06T14:05:41;11.70;46.70
3994;DHT22;2011;48.238;13.948;2023-04-06T14:08:09;11.60;46.80
3994;DHT22;2011;48.238;13.948;2023-04-06T14:10:37;11.50;46.20
3994;DHT22;2011;48.238;13.948;2023-04-06T14:13:05;11.60;46.20
3994;DHT22;2011;48.238;13.948;2023-04-06T14:15:33;11.80;45.80
3994;DHT22;2011;48.238;13.948;2023-04-06T14:18:00;11.80;45.60
3994;DHT22;2011;48.238;13.948;2023-04-06T14:20:28;11.90;46.10
3994;DHT22;2011;48.238;13.948;2023-04-06T14:22:56;11.80;46.40
3994;DHT22;2011;48.238;13.948;2023-04-06T14:25:23;11.80;47.20
3994;DHT22;2011;48.238;13.948;2023-04-06T14:27:51;11.80;46.90
3994;DHT22;2011;48.238;13.948;2023-04-06T14:30:18;11.90;48.80
3994;DHT22;2011;48.238;13.948;2023-04-06T14:32:46;12.00;48.40
3994;DHT22;2011;48.238;13.948;2023-04-06T14:35:13;12.10;48.70
3994;DHT22;2011;48.238;13.948;2023-04-06T14:37:41;12.20;47.70
3994;DHT22;2011;48.238;13.948;2023-04-06T14:40:11;12.40;48.90
3994;DHT22;2011;48.238;13.948;2023-04-06T14:42:40;12.50;49.10
3994;DHT22;2011;48.238;13.948;2023-04-06T14:45:11;12.40;47.90
3994;DHT22;2011;48.238;13.948;2023-04-06T14:47:38;12.20;46.80
3994;DHT22;2011;48.238;13.948;2023-04-06T14:50:07;12.10;47.00
3994;DHT22;2011;48.238;13.948;2023-04-06T14:52:37;12.10;46.20
3994;DHT22;2011;48.238;13.948;2023-04-06T14:55:04;12.30;46.70
3994;DHT22;2011;48.238;13.948;2023-04-06T14:57:37;12.40;47.40
3994;DHT22;2011;48.238;13.948;2023-04-06T15:00:05;12.50;46.10
3994;DHT22;2011;48.238;13.948;2023-04-06T15:02:33;12.30;45.80
3994;DHT22;2011;48.238;13.948;2023-04-06T15:05:00;12.10;46.00
3994;DHT22;2011;48.238;13.948;2023-04-06T15:07:28;12.20;46.60
3994;DHT22;2011;48.238;13.948;2023-04-06T15:09:55;12.20;46.70
3994;DHT22;2011;48.238;13.948;2023-04-06T15:12:22;12.20;46.70
3994;DHT22;2011;48.238;13.948;2023-04-06T15:14:50;12.20;46.30
3994;DHT22;2011;48.238;13.948;2023-04-06T15:17:17;12.10;45.10
3994;DHT22;2011;48.238;13.948;2023-04-06T15:19:44;12.00;45.20
3994;DHT22;2011;48.238;13.948;2023-04-06T15:22:10;12.00;44.50
3994;DHT22;2011;48.238;13.948;2023-04-06T15:24:37;12.00;45.60
3994;DHT22;2011;48.238;13.948;2023-04-06T15:27:04;12.10;45.60
3994;DHT22;2011;48.238;13.948;2023-04-06T15:29:32;12.30;46.10
3994;DHT22;2011;48.238;13.948;2023-04-06T15:32:00;12.40;46.00
3994;DHT22;2011;48.238;13.948;2023-04-06T15:34:27;12.40;45.30
3994;DHT22;2011;48.238;13.948;2023-04-06T15:36:55;12.20;44.60
3994;DHT22;2011;48.238;13.948;2023-04-06T15:39:24;12.30;45.70
3994;DHT22;2011;48.238;13.948;2023-04-06T15:41:51;12.20;44.60
3994;DHT22;2011;48.238;13.948;2023-04-06T15:44:18;12.10;44.90
3994;DHT22;2011;48.238;13.948;2023-04-06T15:46:46;11.80;44.10
3994;DHT22;2011;48.238;13.948;2023-04-06T15:49:14;12.00;44.70
3994;DHT22;2011;48.238;13.948;2023-04-06T15:51:41;12.10;45.30
3994;DHT22;2011;48.238;13.948;2023-04-06T15:54:08;12.40;45.60
3994;DHT22;2011;48.238;13.948;2023-04-06T15:56:35;12.60;45.50
3994;DHT22;2011;48.238;13.948;2023-04-06T15:59:02;12.30;43.80